Time,TemperatureF,DewpointF,PressureIn,WindDirection,WindDirectionDegrees,WindSpeedMPH,WindSpeedGustMPH,Humidity,HourlyPrecipIn,Conditions,Clouds,dailyrainin,SoftwareType,DateUTC
2013-04-07 00:02:00,24.0,20.0,-100.00,WNW,285,14.0,27.0,84,-99.99,,,-99.99,,2013-04-07 06:02:00,
2013-04-07 00:12:00,24.0,20.0,-100.00,WNW,285,14.0,27.0,84,-99.99,,,-99.99,,2013-04-07 06:12:00,
2013-04-07 00:22:00,24.0,20.0,-100.00,West,274,13.0,26.0,84,-99.99,,,-99.99,,2013-04-07 06:22:00,
2013-04-07 00:32:00,24.0,20.0,-100.00,West,266,9.0,23.0,83,-99.99,,,-99.99,,2013-04-07 06:32:00,
2013-04-07 00:42:00,24.0,20.0,-100.00,West,266,9.0,23.0,83,-99.99,,,-99.99,,2013-04-07 06:42:00,
2013-04-07 00:52:00,24.0,20.0,-100.00,WSW,240,4.0,14.0,85,-99.99,,,-99.99,,2013-04-07 06:52:00,
2013-04-07 01:02:00,24.0,21.0,-100.00,West,262,9.0,23.0,87,-99.99,,,-99.99,,2013-04-07 07:02:00,
2013-04-07 01:12:00,24.0,21.0,-100.00,West,273,10.0,27.0,88,-99.99,,,-99.99,,2013-04-07 07:12:00,
2013-04-07 01:22:00,24.0,21.0,-100.00,West,273,10.0,27.0,88,-99.99,,,-99.99,,2013-04-07 07:22:00,
2013-04-07 01:32:00,24.0,22.0,-100.00,West,264,7.0,20.0,91,-99.99,,,-99.99,,2013-04-07 07:32:00,
2013-04-07 01:42:00,24.0,22.0,-100.00,West,264,7.0,20.0,91,-99.99,,,-99.99,,2013-04-07 07:42:00,
2013-04-07 01:52:00,24.0,22.0,-100.00,West,278,7.0,21.0,92,-99.99,,,-99.99,,2013-04-07 07:52:00,
2013-04-07 02:02:00,24.0,22.0,-100.00,WNW,292,6.0,13.0,92,-99.99,,,-99.99,,2013-04-07 08:02:00,
2013-04-07 02:12:00,24.0,22.0,-100.00,WNW,292,6.0,13.0,92,-99.99,,,-99.99,,2013-04-07 08:12:00,
2013-04-07 02:22:00,24.0,22.0,-100.00,West,272,6.0,18.0,91,-99.99,,,-99.99,,2013-04-07 08:22:00,
2013-04-07 02:32:00,24.0,21.0,-100.00,West,273,9.0,18.0,89,-99.99,,,-99.99,,2013-04-07 08:32:00,
2013-04-07 02:42:00,24.0,21.0,-100.00,West,273,9.0,18.0,89,-99.99,,,-99.99,,2013-04-07 08:42:00,
2013-04-07 02:52:00,23.0,19.0,-100.00,West,273,10.0,21.0,86,-99.99,,,-99.99,,2013-04-07 08:52:00,
2013-04-07 03:02:00,23.0,20.0,-100.00,WNW,283,7.0,19.0,87,-99.99,,,-99.99,,2013-04-07 09:02:00,
2013-04-07 03:12:00,23.0,20.0,-100.00,WNW,283,7.0,19.0,87,-99.99,,,-99.99,,2013-04-07 09:12:00,
2013-04-07 03:22:00,23.0,20.0,-100.00,WSW,252,7.0,17.0,88,-99.99,,,-99.99,,2013-04-07 09:22:00,
2013-04-07 03:33:00,23.0,20.0,-100.00,WSW,252,4.0,12.0,87,-99.99,,,-99.99,,2013-04-07 09:33:00,
2013-04-07 03:43:00,23.0,20.0,-100.00,WSW,252,4.0,12.0,87,-99.99,,,-99.99,,2013-04-07 09:43:00,
2013-04-07 03:53:00,23.0,20.0,-100.00,West,261,2.0,12.0,88,-99.99,,,-99.99,,2013-04-07 09:53:00,
2013-04-07 04:03:00,22.0,18.0,-100.00,WNW,288,6.0,11.0,83,-99.99,,,-99.99,,2013-04-07 10:03:00,
2013-04-07 04:13:00,22.0,18.0,-100.00,WNW,288,6.0,11.0,83,-99.99,,,-99.99,,2013-04-07 10:13:00,
2013-04-07 04:22:00,22.0,17.0,-100.00,WSW,255,6.0,13.0,82,-99.99,,,-99.99,,2013-04-07 10:22:00,
2013-04-07 04:33:00,22.0,18.0,-100.00,SW,219,3.0,8.0,83,-99.99,,,-99.99,,2013-04-07 10:33:00,
2013-04-07 04:42:00,22.0,18.0,-100.00,SW,219,3.0,8.0,83,-99.99,,,-99.99,,2013-04-07 10:42:00,
2013-04-07 04:53:00,21.0,17.0,-100.00,WSW,251,8.0,24.0,86,-99.99,,,-99.99,,2013-04-07 10:53:00,
2013-04-07 05:02:00,22.0,17.0,-100.00,West,264,9.0,20.0,80,-99.99,,,-99.99,,2013-04-07 11:02:00,
2013-04-07 05:12:00,22.0,16.0,-100.00,WNW,282,10.0,23.0,77,-99.99,,,-99.99,,2013-04-07 11:12:00,
2013-04-07 05:22:00,22.0,16.0,-100.00,WNW,282,10.0,23.0,77,-99.99,,,-99.99,,2013-04-07 11:22:00,
2013-04-07 05:32:00,23.0,17.0,-100.00,West,269,8.0,23.0,77,-99.99,,,-99.99,,2013-04-07 11:32:00,
2013-04-07 05:42:00,23.0,17.0,-100.00,West,269,8.0,23.0,77,-99.99,,,-99.99,,2013-04-07 11:42:00,
2013-04-07 05:53:00,22.0,17.0,-100.00,WNW,284,9.0,19.0,81,-99.99,,,-99.99,,2013-04-07 11:53:00,
2013-04-07 06:02:00,22.0,17.0,-100.00,WNW,292,9.0,24.0,82,-99.99,,,-99.99,,2013-04-07 12:02:00,
2013-04-07 06:12:00,22.0,17.0,-100.00,WNW,292,9.0,24.0,82,-99.99,,,-99.99,,2013-04-07 12:12:00,
2013-04-07 06:22:00,23.0,18.0,-100.00,WNW,282,8.0,18.0,81,-99.99,,,-99.99,,2013-04-07 12:22:00,
2013-04-07 06:33:00,23.0,19.0,-100.00,WNW,291,9.0,22.0,83,-99.99,,,-99.99,,2013-04-07 12:33:00,
2013-04-07 06:42:00,23.0,19.0,-100.00,WNW,291,9.0,22.0,83,-99.99,,,-99.99,,2013-04-07 12:42:00,
2013-04-07 06:53:00,23.0,19.0,-100.00,WNW,293,8.0,15.0,86,-99.99,,,-99.99,,2013-04-07 12:53:00,
2013-04-07 07:03:00,23.0,20.0,-100.00,WNW,283,9.0,24.0,87,-99.99,,,-99.99,,2013-04-07 13:03:00,
2013-04-07 07:12:00,23.0,20.0,-100.00,WNW,283,9.0,24.0,87,-99.99,,,-99.99,,2013-04-07 13:12:00,
2013-04-07 07:22:00,23.0,20.0,-100.00,WNW,284,8.0,18.0,87,-99.99,,,-99.99,,2013-04-07 13:22:00,
2013-04-07 07:32:00,23.0,20.0,-100.00,West,266,9.0,21.0,87,-99.99,,,-99.99,,2013-04-07 13:32:00,
2013-04-07 07:42:00,23.0,19.0,-100.00,WSW,256,7.0,15.0,86,-99.99,,,-99.99,,2013-04-07 13:42:00,
2013-04-07 07:53:00,23.0,19.0,-100.00,WSW,256,7.0,15.0,86,-99.99,,,-99.99,,2013-04-07 13:53:00,
2013-04-07 08:02:00,23.0,20.0,-100.00,WSW,238,10.0,20.0,87,-99.99,,,-99.99,,2013-04-07 14:02:00,
2013-04-07 08:12:00,23.0,20.0,-100.00,WSW,238,10.0,20.0,87,-99.99,,,-99.99,,2013-04-07 14:12:00,
2013-04-07 08:22:00,23.0,20.0,-100.00,WSW,245,10.0,17.0,87,-99.99,,,-99.99,,2013-04-07 14:22:00,
2013-04-07 08:32:00,24.0,20.0,-100.00,WSW,237,10.0,26.0,85,-99.99,,,-99.99,,2013-04-07 14:32:00,
2013-04-07 08:43:00,24.0,20.0,-100.00,WSW,237,10.0,26.0,85,-99.99,,,-99.99,,2013-04-07 14:43:00,
2013-04-07 08:53:00,25.0,21.0,-100.00,WSW,247,9.0,19.0,85,-99.99,,,-99.99,,2013-04-07 14:53:00,
2013-04-07 09:02:00,25.0,22.0,-100.00,WSW,245,7.0,17.0,87,-99.99,,,-99.99,,2013-04-07 15:02:00,
2013-04-07 09:12:00,25.0,22.0,-100.00,WSW,245,7.0,17.0,87,-99.99,,,-99.99,,2013-04-07 15:12:00,
2013-04-07 09:22:00,25.0,22.0,-100.00,WSW,246,9.0,21.0,88,-99.99,,,-99.99,,2013-04-07 15:22:00,
2013-04-07 09:33:00,25.0,21.0,-100.00,WSW,241,9.0,17.0,86,-99.99,,,-99.99,,2013-04-07 15:33:00,
2013-04-07 09:43:00,25.0,21.0,-100.00,WSW,241,9.0,17.0,86,-99.99,,,-99.99,,2013-04-07 15:43:00,
2013-04-07 09:54:00,26.0,22.0,-100.00,SW,235,8.0,19.0,84,-99.99,,,-99.99,,2013-04-07 15:54:00,
2013-04-07 10:03:00,27.0,22.0,-100.00,SW,234,8.0,18.0,81,-99.99,,,-99.99,,2013-04-07 16:03:00,
2013-04-07 10:13:00,27.0,22.0,-100.00,WSW,240,8.0,23.0,81,-99.99,,,-99.99,,2013-04-07 16:13:00,
2013-04-07 10:23:00,27.0,22.0,-100.00,WSW,240,8.0,23.0,81,-99.99,,,-99.99,,2013-04-07 16:23:00,
2013-04-07 10:32:00,26.0,21.0,-100.00,WSW,253,12.0,26.0,82,-99.99,,,-99.99,,2013-04-07 16:32:00,
2013-04-07 10:42:00,26.0,21.0,-100.00,WSW,253,12.0,26.0,82,-99.99,,,-99.99,,2013-04-07 16:42:00,
2013-04-07 10:54:00,26.0,22.0,-100.00,WSW,255,12.0,26.0,83,-99.99,,,-99.99,,2013-04-07 16:54:00,
2013-04-07 11:03:00,25.0,21.0,-100.00,West,270,15.0,32.0,83,-99.99,,,-99.99,,2013-04-07 17:03:00,
2013-04-07 11:12:00,25.0,21.0,-100.00,West,270,15.0,32.0,83,-99.99,,,-99.99,,2013-04-07 17:12:00,
2013-04-07 11:22:00,26.0,21.0,-100.00,West,268,14.0,34.0,80,-99.99,,,-99.99,,2013-04-07 17:22:00,
2013-04-07 11:32:00,28.0,21.0,-100.00,West,276,16.0,33.0,76,-99.99,,,-99.99,,2013-04-07 17:32:00,
2013-04-07 11:42:00,28.0,21.0,-100.00,West,276,16.0,33.0,76,-99.99,,,-99.99,,2013-04-07 17:42:00,
2013-04-07 11:53:00,28.0,21.0,-100.00,West,275,11.0,27.0,76,-99.99,,,-99.99,,2013-04-07 17:53:00,
2013-04-07 12:02:00,28.0,22.0,-100.00,West,272,15.0,30.0,79,-99.99,,,-99.99,,2013-04-07 18:02:00,
2013-04-07 12:13:00,28.0,22.0,-100.00,West,272,15.0,30.0,79,-99.99,,,-99.99,,2013-04-07 18:13:00,
2013-04-07 12:22:00,29.0,22.0,-100.00,West,278,13.0,35.0,76,-99.99,,,-99.99,,2013-04-07 18:22:00,
2013-04-07 12:32:00,28.0,22.0,-100.00,West,274,14.0,36.0,78,-99.99,,,-99.99,,2013-04-07 18:32:00,
2013-04-07 12:42:00,28.0,22.0,-100.00,West,274,14.0,36.0,78,-99.99,,,-99.99,,2013-04-07 18:42:00,
2013-04-07 12:52:00,30.0,22.0,-100.00,West,276,16.0,31.0,73,-99.99,,,-99.99,,2013-04-07 18:52:00,
2013-04-07 13:02:00,30.0,22.0,-100.00,West,276,16.0,31.0,73,-99.99,,,-99.99,,2013-04-07 19:02:00,
2013-04-07 13:12:00,30.0,22.0,-100.00,West,276,16.0,31.0,73,-99.99,,,-99.99,,2013-04-07 19:12:00,
2013-04-07 13:22:00,30.0,22.0,-100.00,West,272,14.0,32.0,72,-99.99,,,-99.99,,2013-04-07 19:22:00,
2013-04-07 13:32:00,30.0,22.0,-100.00,West,268,17.0,35.0,72,-99.99,,,-99.99,,2013-04-07 19:32:00,
2013-04-07 13:42:00,30.0,22.0,-100.00,West,268,17.0,35.0,72,-99.99,,,-99.99,,2013-04-07 19:42:00,
2013-04-07 13:53:00,31.0,21.0,-100.00,West,281,19.0,34.0,67,-99.99,,,-99.99,,2013-04-07 19:53:00,
2013-04-07 14:02:00,31.0,21.0,-100.00,WNW,295,14.0,38.0,67,-99.99,,,-99.99,,2013-04-07 20:02:00,
2013-04-07 14:12:00,31.0,21.0,-100.00,WNW,295,14.0,38.0,67,-99.99,,,-99.99,,2013-04-07 20:12:00,
2013-04-07 14:22:00,30.0,21.0,-100.00,WNW,300,19.0,44.0,70,-99.99,,,-99.99,,2013-04-07 20:22:00,
2013-04-07 14:32:00,29.0,22.0,-100.00,WNW,298,17.0,32.0,76,-99.99,,,-99.99,,2013-04-07 20:32:00,
2013-04-07 14:42:00,29.0,22.0,-100.00,WNW,298,17.0,32.0,76,-99.99,,,-99.99,,2013-04-07 20:42:00,
2013-04-07 14:53:00,30.0,22.0,-100.00,WNW,293,21.0,40.0,71,-99.99,,,-99.99,,2013-04-07 20:53:00,
2013-04-07 15:02:00,30.0,21.0,-100.00,WNW,294,19.0,38.0,70,-99.99,,,-99.99,,2013-04-07 21:02:00,
2013-04-07 15:12:00,30.0,21.0,-100.00,WNW,294,19.0,38.0,70,-99.99,,,-99.99,,2013-04-07 21:12:00,
2013-04-07 15:22:00,28.0,21.0,-100.00,WNW,292,13.0,27.0,74,-99.99,,,-99.99,,2013-04-07 21:22:00,
2013-04-07 15:33:00,27.0,22.0,-100.00,West,278,13.0,30.0,81,-99.99,,,-99.99,,2013-04-07 21:33:00,
2013-04-07 15:43:00,27.0,22.0,-100.00,West,278,13.0,30.0,81,-99.99,,,-99.99,,2013-04-07 21:43:00,
2013-04-07 15:54:00,26.0,22.0,-100.00,WSW,254,16.0,41.0,84,-99.99,,,-99.99,,2013-04-07 21:54:00,
2013-04-07 16:03:00,27.0,22.0,-100.00,West,277,19.0,35.0,80,-99.99,,,-99.99,,2013-04-07 22:03:00,
2013-04-07 16:13:00,26.0,20.0,-100.00,West,278,18.0,45.0,78,-99.99,,,-99.99,,2013-04-07 22:13:00,
2013-04-07 16:23:00,26.0,20.0,-100.00,West,278,18.0,45.0,78,-99.99,,,-99.99,,2013-04-07 22:23:00,
2013-04-07 16:33:00,27.0,20.0,-100.00,WNW,289,20.0,35.0,74,-99.99,,,-99.99,,2013-04-07 22:33:00,
2013-04-07 16:43:00,27.0,20.0,-100.00,WNW,289,20.0,35.0,74,-99.99,,,-99.99,,2013-04-07 22:43:00,
2013-04-07 16:53:00,27.0,20.0,-100.00,WNW,296,16.0,35.0,75,-99.99,,,-99.99,,2013-04-07 22:53:00,
2013-04-07 17:03:00,26.0,21.0,-100.00,WNW,285,22.0,44.0,81,-99.99,,,-99.99,,2013-04-07 23:03:00,
2013-04-07 17:12:00,26.0,21.0,-100.00,WNW,294,22.0,43.0,81,-99.99,,,-99.99,,2013-04-07 23:12:00,
2013-04-07 17:22:00,26.0,21.0,-100.00,WNW,294,22.0,43.0,81,-99.99,,,-99.99,,2013-04-07 23:22:00,
2013-04-07 17:32:00,26.0,20.0,-100.00,WNW,293,21.0,45.0,79,-99.99,,,-99.99,,2013-04-07 23:32:00,
2013-04-07 17:42:00,26.0,20.0,-100.00,WNW,293,21.0,45.0,79,-99.99,,,-99.99,,2013-04-07 23:42:00,
2013-04-07 17:52:00,26.0,20.0,-100.00,WNW,285,23.0,50.0,78,-99.99,,,-99.99,,2013-04-07 23:52:00,
2013-04-07 18:02:00,26.0,20.0,-100.00,WNW,292,18.0,46.0,77,-99.99,,,-99.99,,2013-04-08 00:02:00,
2013-04-07 18:12:00,26.0,20.0,-100.00,WNW,292,18.0,46.0,77,-99.99,,,-99.99,,2013-04-08 00:12:00,
2013-04-07 18:22:00,26.0,20.0,-100.00,WNW,292,14.0,34.0,79,-99.99,,,-99.99,,2013-04-08 00:22:00,
2013-04-07 18:32:00,26.0,22.0,-100.00,West,263,11.0,28.0,83,-99.99,,,-99.99,,2013-04-08 00:32:00,
2013-04-07 18:42:00,26.0,22.0,-100.00,West,263,11.0,28.0,83,-99.99,,,-99.99,,2013-04-08 00:42:00,
2013-04-07 18:52:00,26.0,22.0,-100.00,West,281,14.0,37.0,84,-99.99,,,-99.99,,2013-04-08 00:52:00,
2013-04-07 19:02:00,25.0,21.0,-100.00,West,265,17.0,54.0,86,-99.99,,,-99.99,,2013-04-08 01:02:00,
2013-04-07 19:12:00,25.0,22.0,-100.00,WNW,287,15.0,39.0,90,-99.99,,,-99.99,,2013-04-08 01:12:00,
2013-04-07 19:22:00,25.0,22.0,-100.00,WNW,287,15.0,39.0,90,-99.99,,,-99.99,,2013-04-08 01:22:00,
2013-04-07 19:32:00,25.0,22.0,-100.00,WNW,294,15.0,39.0,89,-99.99,,,-99.99,,2013-04-08 01:32:00,
2013-04-07 19:42:00,25.0,22.0,-100.00,WNW,294,15.0,39.0,89,-99.99,,,-99.99,,2013-04-08 01:42:00,
2013-04-07 19:55:00,24.0,21.0,-100.00,WNW,301,16.0,37.0,89,-99.99,,,-99.99,,2013-04-08 01:55:00,
2013-04-07 20:02:00,24.0,21.0,-100.00,WNW,299,17.0,37.0,88,-99.99,,,-99.99,,2013-04-08 02:02:00,
2013-04-07 20:12:00,24.0,21.0,-100.00,WNW,299,17.0,37.0,88,-99.99,,,-99.99,,2013-04-08 02:12:00,
2013-04-07 20:22:00,23.0,19.0,-100.00,NW,304,22.0,44.0,86,-99.99,,,-99.99,,2013-04-08 02:22:00,
2013-04-07 20:32:00,23.0,19.0,-100.00,NW,308,23.0,47.0,86,-99.99,,,-99.99,,2013-04-08 02:32:00,
2013-04-07 20:45:00,23.0,19.0,-100.00,NW,308,23.0,47.0,86,-99.99,,,-99.99,,2013-04-08 02:45:00,
2013-04-07 20:53:00,22.0,18.0,-100.00,WNW,303,20.0,38.0,85,-99.99,,,-99.99,,2013-04-08 02:53:00,
2013-04-07 21:05:00,22.0,18.0,-100.00,NW,308,16.0,32.0,83,-99.99,,,-99.99,,2013-04-08 03:05:00,
2013-04-07 21:14:00,22.0,18.0,-100.00,WNW,294,14.0,33.0,83,-99.99,,,-99.99,,2013-04-08 03:14:00,
2013-04-07 21:23:00,22.0,18.0,-100.00,WNW,294,14.0,33.0,83,-99.99,,,-99.99,,2013-04-08 03:23:00,
2013-04-07 21:33:00,22.0,18.0,-100.00,WNW,294,11.0,24.0,84,-99.99,,,-99.99,,2013-04-08 03:33:00,
2013-04-07 21:44:00,22.0,18.0,-100.00,WNW,294,11.0,24.0,84,-99.99,,,-99.99,,2013-04-08 03:44:00,
2013-04-07 21:54:00,22.0,18.0,-100.00,WNW,284,11.0,25.0,86,-99.99,,,-99.99,,2013-04-08 03:54:00,
2013-04-07 22:02:00,22.0,18.0,-100.00,WNW,286,13.0,28.0,86,-99.99,,,-99.99,,2013-04-08 04:02:00,
2013-04-07 22:12:00,22.0,18.0,-100.00,WNW,286,13.0,28.0,86,-99.99,,,-99.99,,2013-04-08 04:12:00,
2013-04-07 22:23:00,22.0,18.0,-100.00,WNW,294,10.0,24.0,85,-99.99,,,-99.99,,2013-04-08 04:23:00,
2013-04-07 22:33:00,22.0,19.0,-100.00,WNW,293,14.0,31.0,87,-99.99,,,-99.99,,2013-04-08 04:33:00,
2013-04-07 22:43:00,22.0,19.0,-100.00,WNW,293,14.0,31.0,87,-99.99,,,-99.99,,2013-04-08 04:43:00,
2013-04-07 22:52:00,22.0,18.0,-100.00,WNW,291,12.0,27.0,85,-99.99,,,-99.99,,2013-04-08 04:52:00,
2013-04-07 23:02:00,22.0,17.0,-100.00,West,271,15.0,28.0,82,-99.99,,,-99.99,,2013-04-08 05:02:00,
2013-04-07 23:12:00,22.0,17.0,-100.00,West,259,8.0,23.0,81,-99.99,,,-99.99,,2013-04-08 05:12:00,
2013-04-07 23:22:00,22.0,17.0,-100.00,West,259,8.0,23.0,81,-99.99,,,-99.99,,2013-04-08 05:22:00,
2013-04-07 23:32:00,22.0,17.0,-100.00,West,259,8.0,23.0,81,-99.99,,,-99.99,,2013-04-08 05:32:00,
2013-04-07 23:42:00,22.0,19.0,-100.00,SSW,212,4.0,17.0,88,-99.99,,,-99.99,,2013-04-08 05:42:00,
2013-04-07 23:52:00,21.0,18.0,-100.00,West,261,9.0,23.0,88,-99.99,,,-99.99,,2013-04-08 05:52:00,